sensor_id;sensor_type;location;lat;lon;timestamp;temperature;humidity
14122;DHT22;7139;48.114;11.442;2022-08-03T00:00:58;18.30;99.90
14122;DHT22;7139;48.114;11.442;2022-08-03T00:03:26;18.30;99.90
14122;DHT22;7139;48.114;11.442;2022-08-03T00:05:53;18.30;99.90
14122;DHT22;7139;48.114;11.442;2022-08-03T00:08:19;18.30;99.90
14122;DHT22;7139;48.114;11.442;2022-08-03T00:10:46;18.30;99.90
14122;DHT22;7139;48.114;11.442;2022-08-03T00:13:13;18.20;99.90
14122;DHT22;7139;48.114;11.442;2022-08-03T00:15:40;18.20;99.90
14122;DHT22;7139;48.114;11.442;2022-08-03T00:18:08;18.20;99.90
14122;DHT22;7139;48.114;11.442;2022-08-03T00:20:36;18.10;99.90
14122;DHT22;7139;48.114;11.442;2022-08-03T00:23:03;18.10;99.90
14122;DHT22;7139;48.114;11.442;2022-08-03T00:25:31;18.10;99.90
14122;DHT22;7139;48.114;11.442;2022-08-03T00:27:57;18.00;99.90
14122;DHT22;7139;48.114;11.442;2022-08-03T00:30:24;18.00;99.90
14122;DHT22;7139;48.114;11.442;2022-08-03T00:32:51;18.00;99.90
14122;DHT22;7139;48.114;11.442;2022-08-03T00:35:18;18.00;99.90
14122;DHT22;7139;48.114;11.442;2022-08-03T00:37:46;18.00;99.90
14122;DHT22;7139;48.114;11.442;2022-08-03T00:40:14;18.00;99.90
14122;DHT22;7139;48.114;11.442;2022-08-03T00:42:48;18.00;99.90
14122;DHT22;7139;48.114;11.442;2022-08-03T00:45:16;17.90;99.90
14122;DHT22;7139;48.114;11.442;2022-08-03T00:47:43;17.90;99.90
14122;DHT22;7139;48.114;11.442;2022-08-03T00:50:10;17.80;99.90
14122;DHT22;7139;48.114;11.442;2022-08-03T00:52:37;17.80;99.90
14122;DHT22;7139;48.114;11.442;2022-08-03T00:55:06;17.80;99.90
14122;DHT22;7139;48.114;11.442;2022-08-03T00:57:33;17.80;99.90
14122;DHT22;7139;48.114;11.442;2022-08-03T01:00:00;17.70;99.90
14122;DHT22;7139;48.114;11.442;2022-08-03T01:02:27;17.80;99.90
14122;DHT22;7139;48.114;11.442;2022-08-03T01:04:54;17.70;99.90
14122;DHT22;7139;48.114;11.442;2022-08-03T01:07:26;17.70;99.90
14122;DHT22;7139;48.114;11.442;2022-08-03T01:10:02;17.70;99.90
14122;DHT22;7139;48.114;11.442;2022-08-03T01:12:35;17.70;99.90
14122;DHT22;7139;48.114;11.442;2022-08-03T01:15:08;17.70;99.90
14122;DHT22;7139;48.114;11.442;2022-08-03T01:17:41;17.70;99.90
14122;DHT22;7139;48.114;11.442;2022-08-03T01:20:12;17.70;99.90
14122;DHT22;7139;48.114;11.442;2022-08-03T01:25:58;17.70;99.90
14122;DHT22;7139;48.114;11.442;2022-08-03T01:28:45;17.60;99.90
14122;DHT22;7139;48.114;11.442;2022-08-03T01:31:19;17.60;99.90
14122;DHT22;7139;48.114;11.442;2022-08-03T01:33:53;17.60;99.90
14122;DHT22;7139;48.114;11.442;2022-08-03T01:36:25;17.60;99.90
14122;DHT22;7139;48.114;11.442;2022-08-03T01:38:56;17.50;99.90
14122;DHT22;7139;48.114;11.442;2022-08-03T01:41:29;17.50;99.90
14122;DHT22;7139;48.114;11.442;2022-08-03T01:43:59;17.50;99.90
14122;DHT22;7139;48.114;11.442;2022-08-03T01:46:29;17.50;99.90
14122;DHT22;7139;48.114;11.442;2022-08-03T01:48:57;17.50;99.90
14122;DHT22;7139;48.114;11.442;2022-08-03T01:51:25;17.50;99.90
14122;DHT22;7139;48.114;11.442;2022-08-03T01:53:52;17.50;99.90
14122;DHT22;7139;48.114;11.442;2022-08-03T01:56:21;17.50;99.90
14122;DHT22;7139;48.114;11.442;2022-08-03T01:58:51;17.50;99.90
14122;DHT22;7139;48.114;11.442;2022-08-03T02:01:20;17.40;99.90
14122;DHT22;7139;48.114;11.442;2022-08-03T02:03:49;17.40;99.90
14122;DHT22;7139;48.114;11.442;2022-08-03T02:06:18;17.40;99.90
14122;DHT22;7139;48.114;11.442;2022-08-03T02:08:45;17.40;99.90
14122;DHT22;7139;48.114;11.442;2022-08-03T02:11:14;17.40;99.90
14122;DHT22;7139;48.114;11.442;2022-08-03T02:13:42;17.30;99.90
14122;DHT22;7139;48.114;11.442;2022-08-03T02:16:10;17.30;99.90
14122;DHT22;7139;48.114;11.442;2022-08-03T02:18:39;17.30;99.90
14122;DHT22;7139;48.114;11.442;2022-08-03T02:21:09;17.30;99.90
14122;DHT22;7139;48.114;11.442;2022-08-03T02:23:37;17.20;99.90
14122;DHT22;7139;48.114;11.442;2022-08-03T02:26:07;17.20;99.90
14122;DHT22;7139;48.114;11.442;2022-08-03T02:28:36;17.20;99.90
14122;DHT22;7139;48.114;11.442;2022-08-03T02:31:10;17.10;99.90
14122;DHT22;7139;48.114;11.442;2022-08-03T02:33:42;17.10;99.90
14122;DHT22;7139;48.114;11.442;2022-08-03T02:36:13;17.10;99.90
14122;DHT22;7139;48.114;11.442;2022-08-03T02:38:42;17.10;99.90
14122;DHT22;7139;48.114;11.442;2022-08-03T02:41:14;17.10;99.90
14122;DHT22;7139;48.114;11.442;2022-08-03T02:43:45;17.10;99.90
14122;DHT22;7139;48.114;11.442;2022-08-03T02:46:17;17.10;99.90
14122;DHT22;7139;48.114;11.442;2022-08-03T02:48:45;17.00;99.90
14122;DHT22;7139;48.114;11.442;2022-08-03T02:51:15;17.00;99.90
14122;DHT22;7139;48.114;11.442;2022-08-03T02:53:45;17.00;99.90
14122;DHT22;7139;48.114;11.442;2022-08-03T02:56:13;17.00;99.90
14122;DHT22;7139;48.114;11.442;2022-08-03T02:58:43;17.00;99.90
14122;DHT22;7139;48.114;11.442;2022-08-03T03:01:10;17.00;99.90
14122;DHT22;7139;48.114;11.442;2022-08-03T03:03:39;17.00;99.90
14122;DHT22;7139;48.114;11.442;2022-08-03T03:06:07;16.90;99.90
14122;DHT22;7139;48.114;11.442;2022-08-03T03:08:36;16.90;99.90
14122;DHT22;7139;48.114;11.442;2022-08-03T03:11:03;16.90;99.90
14122;DHT22;7139;48.114;11.442;2022-08-03T03:13:30;16.90;99.90
14122;DHT22;7139;48.114;11.442;2022-08-03T03:16:00;16.80;99.90
14122;DHT22;7139;48.114;11.442;2022-08-03T03:18:28;16.80;99.90
14122;DHT22;7139;48.114;11.442;2022-08-03T03:20:55;16.80;99.90
14122;DHT22;7139;48.114;11.442;2022-08-03T03:23:24;16.80;99.90
14122;DHT22;7139;48.114;11.442;2022-08-03T03:25:53;16.80;99.90
14122;DHT22;7139;48.114;11.442;2022-08-03T03:28:21;16.80;99.90
14122;DHT22;7139;48.114;11.442;2022-08-03T03:30:48;16.70;99.90
14122;DHT22;7139;48.114;11.442;2022-08-03T03:33:15;16.70;99.90
14122;DHT22;7139;48.114;11.442;2022-08-03T03:35:42;16.70;99.90
14122;DHT22;7139;48.114;11.442;2022-08-03T03:38:11;16.70;99.90
14122;DHT22;7139;48.114;11.442;2022-08-03T03:40:38;16.70;99.90
14122;DHT22;7139;48.114;11.442;2022-08-03T03:43:09;16.70;99.90
14122;DHT22;7139;48.114;11.442;2022-08-03T03:45:51;16.70;99.90
14122;DHT22;7139;48.114;11.442;2022-08-03T03:48:18;16.70;99.90
14122;DHT22;7139;48.114;11.442;2022-08-03T03:50:45;16.60;99.90
14122;DHT22;7139;48.114;11.442;2022-08-03T03:53:13;16.60;99.90
14122;DHT22;7139;48.114;11.442;2022-08-03T03:55:40;16.60;99.90
14122;DHT22;7139;48.114;11.442;2022-08-03T03:58:08;16.50;99.90
14122;DHT22;7139;48.114;11.442;2022-08-03T04:00:35;16.50;99.90
14122;DHT22;7139;48.114;11.442;2022-08-03T04:03:02;16.60;99.90
14122;DHT22;7139;48.114;11.442;2022-08-03T04:05:28;16.60;99.90
14122;DHT22;7139;48.114;11.442;2022-08-03T04:08:15;16.60;99.90
14122;DHT22;7139;48.114;11.442;2022-08-03T04:11:05;16.50;99.90
14122;DHT22;7139;48.114;11.442;2022-08-03T04:13:36;16.60;99.90
14122;DHT22;7139;48.114;11.442;2022-08-03T04:16:06;16.50;99.90
14122;DHT22;7139;48.114;11.442;2022-08-03T04:18:37;16.50;99.90
14122;DHT22;7139;48.114;11.442;2022-08-03T04:21:08;16.60;99.90
14122;DHT22;7139;48.114;11.442;2022-08-03T04:23:39;16.60;99.90
14122;DHT22;7139;48.114;11.442;2022-08-03T04:26:08;16.60;99.90
14122;DHT22;7139;48.114;11.442;2022-08-03T04:28:38;16.60;99.90
14122;DHT22;7139;48.114;11.442;2022-08-03T04:31:07;16.60;99.90
14122;DHT22;7139;48.114;11.442;2022-08-03T04:33:36;16.60;99.90
14122;DHT22;7139;48.114;11.442;2022-08-03T04:36:06;16.60;99.90
14122;DHT22;7139;48.114;11.442;2022-08-03T04:38:37;16.60;99.90
14122;DHT22;7139;48.114;11.442;2022-08-03T04:41:05;16.60;99.90
14122;DHT22;7139;48.114;11.442;2022-08-03T04:43:33;16.70;99.90
14122;DHT22;7139;48.114;11.442;2022-08-03T04:46:02;16.70;99.90
14122;DHT22;7139;48.114;11.442;2022-08-03T04:48:30;16.70;99.90
14122;DHT22;7139;48.114;11.442;2022-08-03T04:50:57;16.70;99.90
14122;DHT22;7139;48.114;11.442;2022-08-03T04:53:25;16.70;99.90
14122;DHT22;7139;48.114;11.442;2022-08-03T04:55:52;16.70;99.90
14122;DHT22;7139;48.114;11.442;2022-08-03T04:58:18;16.70;99.90
14122;DHT22;7139;48.114;11.442;2022-08-03T05:00:45;16.70;99.90
14122;DHT22;7139;48.114;11.442;2022-08-03T05:03:17;16.70;99.90
14122;DHT22;7139;48.114;11.442;2022-08-03T05:05:44;16.80;99.90
14122;DHT22;7139;48.114;11.442;2022-08-03T05:08:10;16.80;99.90
14122;DHT22;7139;48.114;11.442;2022-08-03T05:10:37;16.80;99.90
14122;DHT22;7139;48.114;11.442;2022-08-03T05:13:04;16.80;99.90
14122;DHT22;7139;48.114;11.442;2022-08-03T05:15:30;16.80;99.90
14122;DHT22;7139;48.114;11.442;2022-08-03T05:17:57;16.90;99.90
14122;DHT22;7139;48.114;11.442;2022-08-03T05:20:25;16.90;99.90
14122;DHT22;7139;48.114;11.442;2022-08-03T05:22:52;16.90;99.90
14122;DHT22;7139;48.114;11.442;2022-08-03T05:25:19;17.00;99.90
14122;DHT22;7139;48.114;11.442;2022-08-03T05:27:45;17.00;99.90
14122;DHT22;7139;48.114;11.442;2022-08-03T05:30:12;17.10;99.90
14122;DHT22;7139;48.114;11.442;2022-08-03T05:32:39;17.10;99.90
14122;DHT22;7139;48.114;11.442;2022-08-03T05:35:06;17.20;99.90
14122;DHT22;7139;48.114;11.442;2022-08-03T05:37:35;17.20;99.90
14122;DHT22;7139;48.114;11.442;2022-08-03T05:40:02;17.20;99.90
14122;DHT22;7139;48.114;11.442;2022-08-03T05:42:29;17.40;99.90
14122;DHT22;7139;48.114;11.442;2022-08-03T05:44:55;17.40;99.90
14122;DHT22;7139;48.114;11.442;2022-08-03T05:47:22;17.50;99.90
14122;DHT22;7139;48.114;11.442;2022-08-03T05:49:49;17.50;99.90
14122;DHT22;7139;48.114;11.442;2022-08-03T05:52:16;17.60;99.90
14122;DHT22;7139;48.114;11.442;2022-08-03T05:54:44;17.70;99.90
14122;DHT22;7139;48.114;11.442;2022-08-03T05:57:11;17.70;99.90
14122;DHT22;7139;48.114;11.442;2022-08-03T05:59:38;17.80;99.90
14122;DHT22;7139;48.114;11.442;2022-08-03T06:02:04;17.80;99.90
14122;DHT22;7139;48.114;11.442;2022-08-03T06:04:31;17.90;99.90
14122;DHT22;7139;48.114;11.442;2022-08-03T06:06:58;18.00;99.90
14122;DHT22;7139;48.114;11.442;2022-08-03T06:09:33;18.00;99.90
14122;DHT22;7139;48.114;11.442;2022-08-03T06:12:02;18.10;99.90
14122;DHT22;7139;48.114;11.442;2022-08-03T06:14:28;18.20;99.90
14122;DHT22;7139;48.114;11.442;2022-08-03T06:16:55;18.30;99.90
14122;DHT22;7139;48.114;11.442;2022-08-03T06:19:22;18.30;99.90
14122;DHT22;7139;48.114;11.442;2022-08-03T06:21:50;18.40;99.90
14122;DHT22;7139;48.114;11.442;2022-08-03T06:24:16;18.50;99.90
14122;DHT22;7139;48.114;11.442;2022-08-03T06:26:43;18.50;99.90
14122;DHT22;7139;48.114;11.442;2022-08-03T06:29:12;18.60;99.90
14122;DHT22;7139;48.114;11.442;2022-08-03T06:31:38;18.70;99.90
14122;DHT22;7139;48.114;11.442;2022-08-03T06:34:05;18.80;99.90
14122;DHT22;7139;48.114;11.442;2022-08-03T06:36:32;18.90;99.90
14122;DHT22;7139;48.114;11.442;2022-08-03T06:38:59;19.00;99.90
14122;DHT22;7139;48.114;11.442;2022-08-03T06:41:27;19.00;99.90
14122;DHT22;7139;48.114;11.442;2022-08-03T06:43:54;19.10;99.90
14122;DHT22;7139;48.114;11.442;2022-08-03T06:46:22;19.20;99.90
14122;DHT22;7139;48.114;11.442;2022-08-03T06:48:49;19.30;99.90
14122;DHT22;7139;48.114;11.442;2022-08-03T06:51:16;19.40;99.90
14122;DHT22;7139;48.114;11.442;2022-08-03T06:53:43;19.50;99.90
14122;DHT22;7139;48.114;11.442;2022-08-03T06:56:09;19.60;99.90
14122;DHT22;7139;48.114;11.442;2022-08-03T06:58:36;19.60;99.90
14122;DHT22;7139;48.114;11.442;2022-08-03T07:01:03;19.80;99.90
14122;DHT22;7139;48.114;11.442;2022-08-03T07:03:31;19.80;99.90
14122;DHT22;7139;48.114;11.442;2022-08-03T07:05:58;20.00;99.90
14122;DHT22;7139;48.114;11.442;2022-08-03T07:08:24;20.10;99.90
14122;DHT22;7139;48.114;11.442;2022-08-03T07:10:51;20.20;99.90
14122;DHT22;7139;48.114;11.442;2022-08-03T07:13:18;20.30;99.90
14122;DHT22;7139;48.114;11.442;2022-08-03T07:15:45;20.40;99.90
14122;DHT22;7139;48.114;11.442;2022-08-03T07:18:11;20.50;99.90
14122;DHT22;7139;48.114;11.442;2022-08-03T07:20:39;20.60;99.90
14122;DHT22;7139;48.114;11.442;2022-08-03T07:23:06;20.80;99.90
14122;DHT22;7139;48.114;11.442;2022-08-03T07:25:34;20.90;99.90
14122;DHT22;7139;48.114;11.442;2022-08-03T07:28:01;21.00;99.90
14122;DHT22;7139;48.114;11.442;2022-08-03T07:30:28;21.10;99.90
14122;DHT22;7139;48.114;11.442;2022-08-03T07:32:54;21.30;99.90
14122;DHT22;7139;48.114;11.442;2022-08-03T07:35:21;21.50;99.90
14122;DHT22;7139;48.114;11.442;2022-08-03T07:37:49;21.60;99.90
14122;DHT22;7139;48.114;11.442;2022-08-03T07:40:16;21.70;99.80
14122;DHT22;7139;48.114;11.442;2022-08-03T07:42:43;21.90;99.90
14122;DHT22;7139;48.114;11.442;2022-08-03T07:45:09;22.10;98.90
14122;DHT22;7139;48.114;11.442;2022-08-03T07:47:36;22.20;99.50
14122;DHT22;7139;48.114;11.442;2022-08-03T07:50:05;22.40;98.80
14122;DHT22;7139;48.114;11.442;2022-08-03T07:52:32;22.60;99.90
14122;DHT22;7139;48.114;11.442;2022-08-03T07:55:15;22.70;98.70
14122;DHT22;7139;48.114;11.442;2022-08-03T07:57:43;22.90;98.10
14122;DHT22;7139;48.114;11.442;2022-08-03T08:00:14;23.00;97.70
14122;DHT22;7139;48.114;11.442;2022-08-03T08:02:41;23.20;96.90
14122;DHT22;7139;48.114;11.442;2022-08-03T08:05:09;23.30;97.00
14122;DHT22;7139;48.114;11.442;2022-08-03T08:07:36;23.50;96.70
14122;DHT22;7139;48.114;11.442;2022-08-03T08:10:10;23.70;96.00
14122;DHT22;7139;48.114;11.442;2022-08-03T08:12:39;23.80;96.00
14122;DHT22;7139;48.114;11.442;2022-08-03T08:15:07;23.90;96.40
14122;DHT22;7139;48.114;11.442;2022-08-03T08:17:41;24.00;97.30
14122;DHT22;7139;48.114;11.442;2022-08-03T08:20:09;24.20;96.80
14122;DHT22;7139;48.114;11.442;2022-08-03T08:22:36;24.30;95.60
14122;DHT22;7139;48.114;11.442;2022-08-03T08:25:03;24.50;95.00
14122;DHT22;7139;48.114;11.442;2022-08-03T08:27:30;24.60;94.70
14122;DHT22;7139;48.114;11.442;2022-08-03T08:29:58;24.80;94.50
14122;DHT22;7139;48.114;11.442;2022-08-03T08:32:25;24.90;93.70
14122;DHT22;7139;48.114;11.442;2022-08-03T08:34:57;25.00;93.20
14122;DHT22;7139;48.114;11.442;2022-08-03T08:37:24;25.20;94.60
14122;DHT22;7139;48.114;11.442;2022-08-03T08:39:51;25.40;94.20
14122;DHT22;7139;48.114;11.442;2022-08-03T08:42:18;25.50;95.40
14122;DHT22;7139;48.114;11.442;2022-08-03T08:44:44;25.70;95.40
14122;DHT22;7139;48.114;11.442;2022-08-03T08:47:13;25.80;94.70
14122;DHT22;7139;48.114;11.442;2022-08-03T08:49:40;26.00;93.70
14122;DHT22;7139;48.114;11.442;2022-08-03T08:52:08;26.20;92.40
14122;DHT22;7139;48.114;11.442;2022-08-03T08:54:35;26.30;92.70
14122;DHT22;7139;48.114;11.442;2022-08-03T08:57:03;26.40;90.90
14122;DHT22;7139;48.114;11.442;2022-08-03T08:59:32;26.60;91.80
14122;DHT22;7139;48.114;11.442;2022-08-03T09:02:00;26.70;92.90
14122;DHT22;7139;48.114;11.442;2022-08-03T09:04:28;26.80;91.20
14122;DHT22;7139;48.114;11.442;2022-08-03T09:06:55;26.90;91.50
14122;DHT22;7139;48.114;11.442;2022-08-03T09:09:22;27.10;91.30
14122;DHT22;7139;48.114;11.442;2022-08-03T09:11:49;27.20;91.00
14122;DHT22;7139;48.114;11.442;2022-08-03T09:14:16;27.40;89.40
14122;DHT22;7139;48.114;11.442;2022-08-03T09:16:55;27.50;90.50
14122;DHT22;7139;48.114;11.442;2022-08-03T09:19:23;27.70;90.90
14122;DHT22;7139;48.114;11.442;2022-08-03T09:22:18;27.90;88.10
14122;DHT22;7139;48.114;11.442;2022-08-03T09:24:59;28.00;86.30
14122;DHT22;7139;48.114;11.442;2022-08-03T09:27:27;28.10;86.50
14122;DHT22;7139;48.114;11.442;2022-08-03T09:29:54;28.20;87.70
14122;DHT22;7139;48.114;11.442;2022-08-03T09:32:22;28.30;82.00
14122;DHT22;7139;48.114;11.442;2022-08-03T09:34:51;28.40;86.70
14122;DHT22;7139;48.114;11.442;2022-08-03T09:37:19;28.50;85.00
14122;DHT22;7139;48.114;11.442;2022-08-03T09:39:50;28.60;80.90
14122;DHT22;7139;48.114;11.442;2022-08-03T09:42:18;28.70;83.20
14122;DHT22;7139;48.114;11.442;2022-08-03T09:44:47;28.80;79.90
14122;DHT22;7139;48.114;11.442;2022-08-03T09:47:15;28.80;82.10
14122;DHT22;7139;48.114;11.442;2022-08-03T09:49:56;29.00;81.80
14122;DHT22;7139;48.114;11.442;2022-08-03T09:52:30;29.20;81.40
14122;DHT22;7139;48.114;11.442;2022-08-03T09:54:58;29.20;79.00
14122;DHT22;7139;48.114;11.442;2022-08-03T09:57:27;29.40;80.20
14122;DHT22;7139;48.114;11.442;2022-08-03T10:00:06;29.50;78.00
14122;DHT22;7139;48.114;11.442;2022-08-03T10:02:37;29.60;76.20
14122;DHT22;7139;48.114;11.442;2022-08-03T10:05:05;29.70;77.80
14122;DHT22;7139;48.114;11.442;2022-08-03T10:07:43;29.80;76.20
14122;DHT22;7139;48.114;11.442;2022-08-03T10:10:10;29.80;74.60
14122;DHT22;7139;48.114;11.442;2022-08-03T10:12:37;29.80;76.80
14122;DHT22;7139;48.114;11.442;2022-08-03T10:15:06;29.80;70.90
14122;DHT22;7139;48.114;11.442;2022-08-03T10:17:33;29.90;71.30
14122;DHT22;7139;48.114;11.442;2022-08-03T10:20:00;30.10;74.70
14122;DHT22;7139;48.114;11.442;2022-08-03T10:22:32;30.30;73.90
14122;DHT22;7139;48.114;11.442;2022-08-03T10:25:03;30.50;71.00
14122;DHT22;7139;48.114;11.442;2022-08-03T10:27:32;30.50;71.10
14122;DHT22;7139;48.114;11.442;2022-08-03T10:30:01;30.70;71.70
14122;DHT22;7139;48.114;11.442;2022-08-03T10:32:33;30.80;66.10
14122;DHT22;7139;48.114;11.442;2022-08-03T10:35:04;30.70;65.20
14122;DHT22;7139;48.114;11.442;2022-08-03T10:37:33;30.70;66.60
14122;DHT22;7139;48.114;11.442;2022-08-03T10:40:06;30.90;65.20
14122;DHT22;7139;48.114;11.442;2022-08-03T10:42:34;30.90;65.10
14122;DHT22;7139;48.114;11.442;2022-08-03T10:45:05;31.00;69.50
14122;DHT22;7139;48.114;11.442;2022-08-03T10:47:33;31.20;70.00
14122;DHT22;7139;48.114;11.442;2022-08-03T10:50:01;31.20;64.40
14122;DHT22;7139;48.114;11.442;2022-08-03T10:52:28;31.20;65.10
14122;DHT22;7139;48.114;11.442;2022-08-03T10:54:55;31.30;61.60
14122;DHT22;7139;48.114;11.442;2022-08-03T10:57:58;31.40;65.40
14122;DHT22;7139;48.114;11.442;2022-08-03T11:00:26;31.50;62.10
14122;DHT22;7139;48.114;11.442;2022-08-03T11:03:08;31.60;61.80
14122;DHT22;7139;48.114;11.442;2022-08-03T11:05:37;31.50;59.20
14122;DHT22;7139;48.114;11.442;2022-08-03T11:08:27;31.60;65.10
14122;DHT22;7139;48.114;11.442;2022-08-03T11:10:57;31.80;61.90
14122;DHT22;7139;48.114;11.442;2022-08-03T11:13:26;31.80;61.80
14122;DHT22;7139;48.114;11.442;2022-08-03T11:15:57;31.80;58.70
14122;DHT22;7139;48.114;11.442;2022-08-03T11:18:24;31.90;61.60
14122;DHT22;7139;48.114;11.442;2022-08-03T11:20:53;31.90;59.40
14122;DHT22;7139;48.114;11.442;2022-08-03T11:23:39;31.90;59.40
14122;DHT22;7139;48.114;11.442;2022-08-03T11:26:14;31.90;59.20
14122;DHT22;7139;48.114;11.442;2022-08-03T11:28:44;31.90;59.20
14122;DHT22;7139;48.114;11.442;2022-08-03T11:31:45;32.00;57.90
14122;DHT22;7139;48.114;11.442;2022-08-03T11:34:14;32.10;61.80
14122;DHT22;7139;48.114;11.442;2022-08-03T11:39:47;32.10;56.90
14122;DHT22;7139;48.114;11.442;2022-08-03T11:42:39;32.10;58.40
14122;DHT22;7139;48.114;11.442;2022-08-03T11:45:10;32.40;58.00
14122;DHT22;7139;48.114;11.442;2022-08-03T11:47:38;32.60;60.00
14122;DHT22;7139;48.114;11.442;2022-08-03T11:50:06;32.70;57.90
14122;DHT22;7139;48.114;11.442;2022-08-03T11:52:38;32.80;58.00
14122;DHT22;7139;48.114;11.442;2022-08-03T11:55:11;32.80;57.40
14122;DHT22;7139;48.114;11.442;2022-08-03T11:57:38;32.80;59.20
14122;DHT22;7139;48.114;11.442;2022-08-03T12:00:30;32.80;58.00
14122;DHT22;7139;48.114;11.442;2022-08-03T12:03:05;32.90;54.40
14122;DHT22;7139;48.114;11.442;2022-08-03T12:05:34;33.00;54.80
14122;DHT22;7139;48.114;11.442;2022-08-03T12:08:01;33.00;52.50
14122;DHT22;7139;48.114;11.442;2022-08-03T12:10:27;32.90;52.40
14122;DHT22;7139;48.114;11.442;2022-08-03T12:12:55;32.80;52.10
14122;DHT22;7139;48.114;11.442;2022-08-03T12:15:26;33.00;54.90
14122;DHT22;7139;48.114;11.442;2022-08-03T12:17:55;33.10;55.80
14122;DHT22;7139;48.114;11.442;2022-08-03T12:20:24;33.10;54.10
14122;DHT22;7139;48.114;11.442;2022-08-03T12:22:51;33.20;57.10
14122;DHT22;7139;48.114;11.442;2022-08-03T12:25:22;33.10;54.10
14122;DHT22;7139;48.114;11.442;2022-08-03T12:27:50;33.10;55.40
14122;DHT22;7139;48.114;11.442;2022-08-03T12:30:17;33.20;55.20
14122;DHT22;7139;48.114;11.442;2022-08-03T12:32:45;33.20;53.60
14122;DHT22;7139;48.114;11.442;2022-08-03T12:35:22;33.20;52.40
14122;DHT22;7139;48.114;11.442;2022-08-03T12:37:50;33.30;53.80
14122;DHT22;7139;48.114;11.442;2022-08-03T12:40:24;33.50;54.60
14122;DHT22;7139;48.114;11.442;2022-08-03T12:42:52;33.50;52.00
14122;DHT22;7139;48.114;11.442;2022-08-03T12:45:20;33.50;51.60
14122;DHT22;7139;48.114;11.442;2022-08-03T12:47:54;33.40;48.70
14122;DHT22;7139;48.114;11.442;2022-08-03T12:50:28;33.20;50.70
14122;DHT22;7139;48.114;11.442;2022-08-03T12:52:57;33.40;51.60
14122;DHT22;7139;48.114;11.442;2022-08-03T12:55:25;33.50;54.40
14122;DHT22;7139;48.114;11.442;2022-08-03T12:57:58;33.50;54.70
14122;DHT22;7139;48.114;11.442;2022-08-03T13:00:26;33.40;52.80
14122;DHT22;7139;48.114;11.442;2022-08-03T13:02:58;33.40;52.90
14122;DHT22;7139;48.114;11.442;2022-08-03T13:05:28;33.30;51.30
14122;DHT22;7139;48.114;11.442;2022-08-03T13:07:54;33.30;53.90
14122;DHT22;7139;48.114;11.442;2022-08-03T13:10:29;33.40;49.40
14122;DHT22;7139;48.114;11.442;2022-08-03T13:12:56;33.30;51.20
14122;DHT22;7139;48.114;11.442;2022-08-03T13:15:25;33.30;48.30
14122;DHT22;7139;48.114;11.442;2022-08-03T13:17:57;33.30;47.40
14122;DHT22;7139;48.114;11.442;2022-08-03T13:20:24;33.30;51.80
14122;DHT22;7139;48.114;11.442;2022-08-03T13:22:52;33.30;49.30
14122;DHT22;7139;48.114;11.442;2022-08-03T13:25:19;33.30;48.20
14122;DHT22;7139;48.114;11.442;2022-08-03T13:27:46;33.40;48.90
14122;DHT22;7139;48.114;11.442;2022-08-03T13:30:13;33.40;50.50
14122;DHT22;7139;48.114;11.442;2022-08-03T13:32:41;33.40;51.50
14122;DHT22;7139;48.114;11.442;2022-08-03T13:35:08;33.30;51.10
14122;DHT22;7139;48.114;11.442;2022-08-03T13:37:36;33.30;49.50
14122;DHT22;7139;48.114;11.442;2022-08-03T13:40:05;33.30;49.30
14122;DHT22;7139;48.114;11.442;2022-08-03T13:42:34;33.30;49.40
14122;DHT22;7139;48.114;11.442;2022-08-03T13:45:02;33.20;49.60
14122;DHT22;7139;48.114;11.442;2022-08-03T13:47:29;33.20;51.10
14122;DHT22;7139;48.114;11.442;2022-08-03T13:49:56;33.10;49.10
14122;DHT22;7139;48.114;11.442;2022-08-03T13:52:23;33.20;48.70
14122;DHT22;7139;48.114;11.442;2022-08-03T13:54:49;33.20;48.20
14122;DHT22;7139;48.114;11.442;2022-08-03T13:57:18;33.10;48.60
14122;DHT22;7139;48.114;11.442;2022-08-03T13:59:44;33.10;50.50
14122;DHT22;7139;48.114;11.442;2022-08-03T14:02:11;33.20;52.40
14122;DHT22;7139;48.114;11.442;2022-08-03T14:04:38;33.20;48.80
14122;DHT22;7139;48.114;11.442;2022-08-03T14:07:05;33.20;50.50
14122;DHT22;7139;48.114;11.442;2022-08-03T14:09:31;33.10;48.70
14122;DHT22;7139;48.114;11.442;2022-08-03T14:11:59;33.20;47.00
14122;DHT22;7139;48.114;11.442;2022-08-03T14:14:27;33.10;48.90
14122;DHT22;7139;48.114;11.442;2022-08-03T14:16:54;33.10;49.40
14122;DHT22;7139;48.114;11.442;2022-08-03T14:19:20;33.00;47.20
14122;DHT22;7139;48.114;11.442;2022-08-03T14:21:47;33.10;47.90
14122;DHT22;7139;48.114;11.442;2022-08-03T14:24:14;33.20;48.90
14122;DHT22;7139;48.114;11.442;2022-08-03T14:26:41;33.10;48.00
14122;DHT22;7139;48.114;11.442;2022-08-03T14:29:07;33.00;47.00
14122;DHT22;7139;48.114;11.442;2022-08-03T14:31:36;33.00;47.20
14122;DHT22;7139;48.114;11.442;2022-08-03T14:34:03;33.00;46.10
14122;DHT22;7139;48.114;11.442;2022-08-03T14:36:29;32.90;46.10
14122;DHT22;7139;48.114;11.442;2022-08-03T14:38:56;32.70;46.30
14122;DHT22;7139;48.114;11.442;2022-08-03T14:41:23;32.70;47.30
14122;DHT22;7139;48.114;11.442;2022-08-03T14:43:50;32.80;48.20
14122;DHT22;7139;48.114;11.442;2022-08-03T14:46:16;32.80;47.20
14122;DHT22;7139;48.114;11.442;2022-08-03T14:48:44;32.80;48.30
14122;DHT22;7139;48.114;11.442;2022-08-03T14:51:11;32.80;47.70
14122;DHT22;7139;48.114;11.442;2022-08-03T14:53:38;32.80;46.70
14122;DHT22;7139;48.114;11.442;2022-08-03T14:56:06;32.70;46.60
14122;DHT22;7139;48.114;11.442;2022-08-03T14:58:32;32.70;48.90
14122;DHT22;7139;48.114;11.442;2022-08-03T15:00:59;32.60;47.30
14122;DHT22;7139;48.114;11.442;2022-08-03T15:03:26;32.50;47.50
14122;DHT22;7139;48.114;11.442;2022-08-03T15:05:55;32.60;47.90
14122;DHT22;7139;48.114;11.442;2022-08-03T15:08:23;32.60;47.90
14122;DHT22;7139;48.114;11.442;2022-08-03T15:10:50;32.60;47.70
14122;DHT22;7139;48.114;11.442;2022-08-03T15:13:17;32.60;48.30
14122;DHT22;7139;48.114;11.442;2022-08-03T15:15:44;32.60;46.60
14122;DHT22;7139;48.114;11.442;2022-08-03T15:18:12;32.60;47.10
14122;DHT22;7139;48.114;11.442;2022-08-03T15:20:39;32.50;47.80
14122;DHT22;7139;48.114;11.442;2022-08-03T15:23:07;32.50;49.60
14122;DHT22;7139;48.114;11.442;2022-08-03T15:25:34;32.50;49.10
14122;DHT22;7139;48.114;11.442;2022-08-03T15:28:01;32.50;50.00
14122;DHT22;7139;48.114;11.442;2022-08-03T15:30:28;32.40;49.50
14122;DHT22;7139;48.114;11.442;2022-08-03T15:32:55;32.50;49.50
14122;DHT22;7139;48.114;11.442;2022-08-03T15:35:22;32.40;50.10
14122;DHT22;7139;48.114;11.442;2022-08-03T15:37:49;32.30;49.70
14122;DHT22;7139;48.114;11.442;2022-08-03T15:40:17;32.30;50.70
14122;DHT22;7139;48.114;11.442;2022-08-03T15:42:44;32.20;50.60
14122;DHT22;7139;48.114;11.442;2022-08-03T15:45:11;32.10;50.10
14122;DHT22;7139;48.114;11.442;2022-08-03T15:47:37;32.10;50.50